sensor_id;sensor_type;location;lat;lon;timestamp;pressure;altitude;pressure_sealevel;temperature;humidity
49645;BME280;36494;50.730;-1.932;2023-01-27T00:01:24;102626.49;;;4.37;100.00
49645;BME280;36494;50.730;-1.932;2023-01-27T00:03:49;102624.67;;;4.35;100.00
49645;BME280;36494;50.730;-1.932;2023-01-27T00:06:15;102617.77;;;4.31;100.00
49645;BME280;36494;50.730;-1.932;2023-01-27T00:08:41;102610.31;;;4.26;100.00
49645;BME280;36494;50.730;-1.932;2023-01-27T00:11:06;102609.42;;;4.21;100.00
49645;BME280;36494;50.730;-1.932;2023-01-27T00:13:32;102608.79;;;4.20;100.00
49645;BME280;36494;50.730;-1.932;2023-01-27T00:15:57;102606.22;;;4.14;100.00
49645;BME280;36494;50.730;-1.932;2023-01-27T00:18:23;102605.05;;;4.09;100.00
49645;BME280;36494;50.730;-1.932;2023-01-27T00:20:49;102607.79;;;4.08;100.00
49645;BME280;36494;50.730;-1.932;2023-01-27T00:23:15;102609.57;;;4.03;100.00
49645;BME280;36494;50.730;-1.932;2023-01-27T00:25:40;102607.19;;;3.99;100.00
49645;BME280;36494;50.730;-1.932;2023-01-27T00:28:05;102606.48;;;4.00;100.00
49645;BME280;36494;50.730;-1.932;2023-01-27T00:30:30;102605.20;;;3.96;100.00
49645;BME280;36494;50.730;-1.932;2023-01-27T00:32:56;102603.89;;;3.89;100.00
49645;BME280;36494;50.730;-1.932;2023-01-27T00:35:22;102607.16;;;3.81;100.00
49645;BME280;36494;50.730;-1.932;2023-01-27T00:37:47;102604.20;;;3.77;100.00
49645;BME280;36494;50.730;-1.932;2023-01-27T00:40:14;102601.46;;;3.74;100.00
49645;BME280;36494;50.730;-1.932;2023-01-27T00:42:38;102596.51;;;3.70;100.00
49645;BME280;36494;50.730;-1.932;2023-01-27T00:45:04;102594.66;;;3.65;100.00
49645;BME280;36494;50.730;-1.932;2023-01-27T00:47:28;102597.49;;;3.62;100.00
49645;BME280;36494;50.730;-1.932;2023-01-27T00:49:54;102603.01;;;3.58;100.00
49645;BME280;36494;50.730;-1.932;2023-01-27T00:52:20;102595.93;;;3.54;100.00
49645;BME280;36494;50.730;-1.932;2023-01-27T00:54:45;102591.46;;;3.47;100.00
49645;BME280;36494;50.730;-1.932;2023-01-27T00:57:10;102596.00;;;3.46;100.00
49645;BME280;36494;50.730;-1.932;2023-01-27T00:59:36;102600.74;;;3.41;100.00
49645;BME280;36494;50.730;-1.932;2023-01-27T01:02:01;102593.75;;;3.36;100.00
49645;BME280;36494;50.730;-1.932;2023-01-27T01:04:27;102589.95;;;3.32;100.00
49645;BME280;36494;50.730;-1.932;2023-01-27T01:06:52;102591.98;;;3.29;100.00
49645;BME280;36494;50.730;-1.932;2023-01-27T01:09:17;102591.92;;;3.26;100.00
49645;BME280;36494;50.730;-1.932;2023-01-27T01:11:43;102591.98;;;3.22;100.00
49645;BME280;36494;50.730;-1.932;2023-01-27T01:14:08;102591.25;;;3.17;100.00
49645;BME280;36494;50.730;-1.932;2023-01-27T01:16:33;102588.07;;;3.17;100.00
49645;BME280;36494;50.730;-1.932;2023-01-27T01:18:59;102580.83;;;3.15;100.00
49645;BME280;36494;50.730;-1.932;2023-01-27T01:21:24;102578.91;;;3.12;100.00
49645;BME280;36494;50.730;-1.932;2023-01-27T01:23:50;102579.56;;;3.11;100.00
49645;BME280;36494;50.730;-1.932;2023-01-27T01:26:16;102574.00;;;3.06;100.00
49645;BME280;36494;50.730;-1.932;2023-01-27T01:28:42;102569.42;;;3.04;100.00
49645;BME280;36494;50.730;-1.932;2023-01-27T01:31:08;102570.92;;;3.03;100.00
49645;BME280;36494;50.730;-1.932;2023-01-27T01:33:32;102567.89;;;2.96;100.00
49645;BME280;36494;50.730;-1.932;2023-01-27T01:36:02;102569.95;;;2.95;100.00
49645;BME280;36494;50.730;-1.932;2023-01-27T01:38:23;102567.89;;;2.93;100.00
49645;BME280;36494;50.730;-1.932;2023-01-27T01:40:48;102567.04;;;2.92;100.00
49645;BME280;36494;50.730;-1.932;2023-01-27T01:43:16;102570.37;;;2.85;100.00
49645;BME280;36494;50.730;-1.932;2023-01-27T01:45:46;102570.00;;;2.82;100.00
49645;BME280;36494;50.730;-1.932;2023-01-27T01:48:07;102565.50;;;2.82;100.00
49645;BME280;36494;50.730;-1.932;2023-01-27T01:50:31;102566.25;;;2.81;100.00
49645;BME280;36494;50.730;-1.932;2023-01-27T01:52:56;102564.16;;;2.81;100.00
49645;BME280;36494;50.730;-1.932;2023-01-27T01:55:21;102560.29;;;2.74;100.00
49645;BME280;36494;50.730;-1.932;2023-01-27T01:57:47;102556.65;;;2.73;100.00
49645;BME280;36494;50.730;-1.932;2023-01-27T02:00:12;102551.06;;;2.68;100.00
49645;BME280;36494;50.730;-1.932;2023-01-27T02:02:37;102554.07;;;2.66;100.00
49645;BME280;36494;50.730;-1.932;2023-01-27T02:05:05;102554.65;;;2.59;100.00
49645;BME280;36494;50.730;-1.932;2023-01-27T02:07:33;102555.64;;;2.61;100.00
49645;BME280;36494;50.730;-1.932;2023-01-27T02:09:55;102554.86;;;2.65;100.00
49645;BME280;36494;50.730;-1.932;2023-01-27T02:12:19;102552.46;;;2.58;100.00
49645;BME280;36494;50.730;-1.932;2023-01-27T02:14:45;102553.58;;;2.58;100.00
49645;BME280;36494;50.730;-1.932;2023-01-27T02:17:11;102549.78;;;2.58;100.00
49645;BME280;36494;50.730;-1.932;2023-01-27T02:19:42;102552.76;;;2.57;100.00
49645;BME280;36494;50.730;-1.932;2023-01-27T02:22:03;102556.81;;;2.56;100.00
49645;BME280;36494;50.730;-1.932;2023-01-27T02:24:35;102557.30;;;2.56;100.00
49645;BME280;36494;50.730;-1.932;2023-01-27T02:26:52;102558.73;;;2.56;100.00
49645;BME280;36494;50.730;-1.932;2023-01-27T02:29:17;102556.53;;;2.53;100.00
49645;BME280;36494;50.730;-1.932;2023-01-27T02:31:43;102553.54;;;2.51;100.00
49645;BME280;36494;50.730;-1.932;2023-01-27T02:34:11;102549.61;;;2.49;100.00
49645;BME280;36494;50.730;-1.932;2023-01-27T02:36:42;102550.51;;;2.50;100.00
49645;BME280;36494;50.730;-1.932;2023-01-27T02:39:00;102552.23;;;2.50;100.00
49645;BME280;36494;50.730;-1.932;2023-01-27T02:41:27;102553.69;;;2.51;100.00
49645;BME280;36494;50.730;-1.932;2023-01-27T02:43:50;102554.33;;;2.51;100.00
49645;BME280;36494;50.730;-1.932;2023-01-27T02:46:16;102551.38;;;2.52;100.00
49645;BME280;36494;50.730;-1.932;2023-01-27T02:48:41;102546.13;;;2.53;100.00
49645;BME280;36494;50.730;-1.932;2023-01-27T02:51:06;102539.81;;;2.54;100.00
49645;BME280;36494;50.730;-1.932;2023-01-27T02:53:32;102537.81;;;2.56;100.00
49645;BME280;36494;50.730;-1.932;2023-01-27T02:55:57;102540.91;;;2.58;100.00
49645;BME280;36494;50.730;-1.932;2023-01-27T02:58:23;102543.94;;;2.58;100.00
49645;BME280;36494;50.730;-1.932;2023-01-27T03:00:48;102540.84;;;2.61;100.00
49645;BME280;36494;50.730;-1.932;2023-01-27T03:03:13;102536.17;;;2.62;100.00
49645;BME280;36494;50.730;-1.932;2023-01-27T03:05:38;102539.31;;;2.65;100.00
49645;BME280;36494;50.730;-1.932;2023-01-27T03:08:04;102542.40;;;2.66;100.00
49645;BME280;36494;50.730;-1.932;2023-01-27T03:10:30;102541.38;;;2.68;100.00
49645;BME280;36494;50.730;-1.932;2023-01-27T03:12:55;102535.50;;;2.69;100.00
49645;BME280;36494;50.730;-1.932;2023-01-27T03:15:20;102534.97;;;2.70;100.00
49645;BME280;36494;50.730;-1.932;2023-01-27T03:17:46;102534.33;;;2.71;100.00
49645;BME280;36494;50.730;-1.932;2023-01-27T03:20:12;102533.19;;;2.71;100.00
49645;BME280;36494;50.730;-1.932;2023-01-27T03:22:37;102531.12;;;2.72;100.00
49645;BME280;36494;50.730;-1.932;2023-01-27T03:25:03;102528.93;;;2.70;100.00
49645;BME280;36494;50.730;-1.932;2023-01-27T03:27:27;102526.31;;;2.70;100.00
49645;BME280;36494;50.730;-1.932;2023-01-27T03:29:53;102525.29;;;2.68;100.00
49645;BME280;36494;50.730;-1.932;2023-01-27T03:32:18;102522.72;;;2.65;100.00
49645;BME280;36494;50.730;-1.932;2023-01-27T03:34:44;102516.79;;;2.64;100.00
49645;BME280;36494;50.730;-1.932;2023-01-27T03:37:10;102511.51;;;2.65;100.00
49645;BME280;36494;50.730;-1.932;2023-01-27T03:39:35;102507.19;;;2.63;100.00
49645;BME280;36494;50.730;-1.932;2023-01-27T03:42:00;102508.36;;;2.62;100.00
49645;BME280;36494;50.730;-1.932;2023-01-27T03:44:26;102503.32;;;2.61;100.00
49645;BME280;36494;50.730;-1.932;2023-01-27T03:46:51;102502.96;;;2.63;100.00
49645;BME280;36494;50.730;-1.932;2023-01-27T03:49:17;102507.08;;;2.63;100.00
49645;BME280;36494;50.730;-1.932;2023-01-27T03:51:42;102507.32;;;2.64;100.00
49645;BME280;36494;50.730;-1.932;2023-01-27T03:54:08;102501.72;;;2.65;100.00
49645;BME280;36494;50.730;-1.932;2023-01-27T03:56:34;102501.72;;;2.67;100.00
49645;BME280;36494;50.730;-1.932;2023-01-27T03:58:59;102504.40;;;2.66;100.00
49645;BME280;36494;50.730;-1.932;2023-01-27T04:01:24;102500.56;;;2.67;100.00
49645;BME280;36494;50.730;-1.932;2023-01-27T04:03:50;102505.28;;;2.69;100.00
49645;BME280;36494;50.730;-1.932;2023-01-27T04:06:16;102503.23;;;2.73;100.00
49645;BME280;36494;50.730;-1.932;2023-01-27T04:08:41;102502.99;;;2.72;100.00
49645;BME280;36494;50.730;-1.932;2023-01-27T04:11:05;102499.21;;;2.71;100.00
49645;BME280;36494;50.730;-1.932;2023-01-27T04:13:31;102487.67;;;2.75;100.00
49645;BME280;36494;50.730;-1.932;2023-01-27T04:15:56;102488.70;;;2.77;100.00
49645;BME280;36494;50.730;-1.932;2023-01-27T04:18:22;102489.80;;;2.72;100.00
49645;BME280;36494;50.730;-1.932;2023-01-27T04:20:47;102486.56;;;2.71;100.00
49645;BME280;36494;50.730;-1.932;2023-01-27T04:23:12;102483.26;;;2.66;100.00
49645;BME280;36494;50.730;-1.932;2023-01-27T04:25:38;102488.01;;;2.66;100.00
49645;BME280;36494;50.730;-1.932;2023-01-27T04:28:03;102489.97;;;2.66;100.00
49645;BME280;36494;50.730;-1.932;2023-01-27T04:30:28;102489.04;;;2.67;100.00
49645;BME280;36494;50.730;-1.932;2023-01-27T04:32:54;102494.51;;;2.67;100.00
49645;BME280;36494;50.730;-1.932;2023-01-27T04:35:19;102494.00;;;2.67;100.00
49645;BME280;36494;50.730;-1.932;2023-01-27T04:37:45;102495.70;;;2.68;100.00
49645;BME280;36494;50.730;-1.932;2023-01-27T04:40:11;102490.87;;;2.59;100.00
49645;BME280;36494;50.730;-1.932;2023-01-27T04:42:36;102485.09;;;2.62;100.00
49645;BME280;36494;50.730;-1.932;2023-01-27T04:45:01;102484.04;;;2.58;100.00
49645;BME280;36494;50.730;-1.932;2023-01-27T04:47:26;102479.73;;;2.57;100.00
49645;BME280;36494;50.730;-1.932;2023-01-27T04:49:52;102475.02;;;2.57;100.00
49645;BME280;36494;50.730;-1.932;2023-01-27T04:52:17;102473.22;;;2.54;100.00
49645;BME280;36494;50.730;-1.932;2023-01-27T04:54:43;102474.26;;;2.60;100.00
49645;BME280;36494;50.730;-1.932;2023-01-27T04:57:08;102475.86;;;2.56;100.00
49645;BME280;36494;50.730;-1.932;2023-01-27T04:59:34;102475.34;;;2.48;100.00
49645;BME280;36494;50.730;-1.932;2023-01-27T05:01:59;102476.79;;;2.51;100.00
49645;BME280;36494;50.730;-1.932;2023-01-27T05:04:25;102482.07;;;2.53;100.00
49645;BME280;36494;50.730;-1.932;2023-01-27T05:06:50;102484.32;;;2.61;100.00
49645;BME280;36494;50.730;-1.932;2023-01-27T05:09:16;102487.43;;;2.59;100.00
49645;BME280;36494;50.730;-1.932;2023-01-27T05:11:41;102493.28;;;2.59;100.00
49645;BME280;36494;50.730;-1.932;2023-01-27T05:14:07;102500.73;;;2.60;100.00
49645;BME280;36494;50.730;-1.932;2023-01-27T05:16:32;102499.38;;;2.61;100.00
49645;BME280;36494;50.730;-1.932;2023-01-27T05:18:57;102496.27;;;2.62;100.00
49645;BME280;36494;50.730;-1.932;2023-01-27T05:21:25;102497.21;;;2.65;100.00
49645;BME280;36494;50.730;-1.932;2023-01-27T05:23:49;102498.25;;;2.63;100.00
49645;BME280;36494;50.730;-1.932;2023-01-27T05:26:17;102498.70;;;2.67;100.00
49645;BME280;36494;50.730;-1.932;2023-01-27T05:28:41;102501.01;;;2.69;100.00
49645;BME280;36494;50.730;-1.932;2023-01-27T05:31:07;102505.95;;;2.70;100.00
49645;BME280;36494;50.730;-1.932;2023-01-27T05:33:30;102511.77;;;2.72;100.00
49645;BME280;36494;50.730;-1.932;2023-01-27T05:35:57;102512.12;;;2.71;100.00
49645;BME280;36494;50.730;-1.932;2023-01-27T05:38:21;102513.11;;;2.78;100.00
49645;BME280;36494;50.730;-1.932;2023-01-27T05:40:46;102503.95;;;2.82;100.00
49645;BME280;36494;50.730;-1.932;2023-01-27T05:43:12;102496.27;;;2.80;100.00
49645;BME280;36494;50.730;-1.932;2023-01-27T05:45:38;102500.14;;;2.83;100.00
49645;BME280;36494;50.730;-1.932;2023-01-27T05:48:03;102501.93;;;2.84;100.00
49645;BME280;36494;50.730;-1.932;2023-01-27T05:50:28;102504.51;;;2.90;100.00
49645;BME280;36494;50.730;-1.932;2023-01-27T05:52:53;102500.12;;;2.93;100.00
49645;BME280;36494;50.730;-1.932;2023-01-27T05:55:19;102496.59;;;2.94;100.00
49645;BME280;36494;50.730;-1.932;2023-01-27T05:57:44;102499.45;;;2.94;100.00
49645;BME280;36494;50.730;-1.932;2023-01-27T06:00:11;102499.04;;;2.97;100.00
49645;BME280;36494;50.730;-1.932;2023-01-27T06:02:35;102499.23;;;2.98;100.00
49645;BME280;36494;50.730;-1.932;2023-01-27T06:05:01;102500.97;;;2.98;100.00
49645;BME280;36494;50.730;-1.932;2023-01-27T06:07:26;102500.24;;;2.99;100.00
49645;BME280;36494;50.730;-1.932;2023-01-27T06:09:52;102502.23;;;3.00;100.00
49645;BME280;36494;50.730;-1.932;2023-01-27T06:12:17;102498.17;;;2.98;100.00
49645;BME280;36494;50.730;-1.932;2023-01-27T06:14:43;102500.60;;;3.04;100.00
49645;BME280;36494;50.730;-1.932;2023-01-27T06:17:08;102498.84;;;3.06;100.00
49645;BME280;36494;50.730;-1.932;2023-01-27T06:19:34;102495.33;;;3.07;100.00
49645;BME280;36494;50.730;-1.932;2023-01-27T06:21:59;102501.99;;;3.08;100.00
49645;BME280;36494;50.730;-1.932;2023-01-27T06:24:25;102505.91;;;3.08;100.00
49645;BME280;36494;50.730;-1.932;2023-01-27T06:26:50;102499.80;;;3.09;100.00
49645;BME280;36494;50.730;-1.932;2023-01-27T06:29:15;102497.11;;;3.12;100.00
49645;BME280;36494;50.730;-1.932;2023-01-27T06:31:40;102497.51;;;3.08;100.00
49645;BME280;36494;50.730;-1.932;2023-01-27T06:34:06;102500.80;;;3.13;100.00
49645;BME280;36494;50.730;-1.932;2023-01-27T06:36:31;102503.64;;;3.13;100.00
49645;BME280;36494;50.730;-1.932;2023-01-27T06:38:57;102504.38;;;3.13;100.00
49645;BME280;36494;50.730;-1.932;2023-01-27T06:41:22;102502.44;;;3.14;100.00
49645;BME280;36494;50.730;-1.932;2023-01-27T06:43:48;102504.79;;;3.16;100.00
49645;BME280;36494;50.730;-1.932;2023-01-27T06:46:13;102504.08;;;3.18;100.00
49645;BME280;36494;50.730;-1.932;2023-01-27T06:48:39;102499.87;;;3.18;100.00
49645;BME280;36494;50.730;-1.932;2023-01-27T06:51:05;102502.90;;;3.19;100.00
49645;BME280;36494;50.730;-1.932;2023-01-27T06:53:30;102498.17;;;3.20;100.00
49645;BME280;36494;50.730;-1.932;2023-01-27T06:55:56;102497.75;;;3.20;100.00
49645;BME280;36494;50.730;-1.932;2023-01-27T06:58:21;102496.48;;;3.22;100.00
49645;BME280;36494;50.730;-1.932;2023-01-27T07:00:46;102494.83;;;3.21;100.00
49645;BME280;36494;50.730;-1.932;2023-01-27T07:03:12;102492.30;;;3.20;100.00
49645;BME280;36494;50.730;-1.932;2023-01-27T07:05:38;102487.47;;;3.15;100.00
49645;BME280;36494;50.730;-1.932;2023-01-27T07:08:03;102483.40;;;3.17;100.00
49645;BME280;36494;50.730;-1.932;2023-01-27T07:10:28;102486.95;;;3.16;100.00
49645;BME280;36494;50.730;-1.932;2023-01-27T07:13:03;102487.48;;;3.17;100.00
49645;BME280;36494;50.730;-1.932;2023-01-27T07:15:19;102486.18;;;3.19;100.00
49645;BME280;36494;50.730;-1.932;2023-01-27T07:17:44;102482.74;;;3.18;100.00
49645;BME280;36494;50.730;-1.932;2023-01-27T07:20:11;102481.33;;;3.16;100.00
49645;BME280;36494;50.730;-1.932;2023-01-27T07:22:35;102474.24;;;3.14;100.00
49645;BME280;36494;50.730;-1.932;2023-01-27T07:25:01;102475.93;;;3.16;100.00
49645;BME280;36494;50.730;-1.932;2023-01-27T07:27:26;102474.91;;;3.12;100.00
49645;BME280;36494;50.730;-1.932;2023-01-27T07:29:52;102476.78;;;3.15;100.00
49645;BME280;36494;50.730;-1.932;2023-01-27T07:32:17;102479.57;;;3.12;100.00
49645;BME280;36494;50.730;-1.932;2023-01-27T07:34:43;102484.26;;;3.12;100.00
49645;BME280;36494;50.730;-1.932;2023-01-27T07:37:08;102491.15;;;3.12;100.00
49645;BME280;36494;50.730;-1.932;2023-01-27T07:39:35;102499.70;;;3.13;100.00
49645;BME280;36494;50.730;-1.932;2023-01-27T07:41:59;102502.74;;;3.14;100.00
49645;BME280;36494;50.730;-1.932;2023-01-27T07:44:24;102501.92;;;3.17;100.00
49645;BME280;36494;50.730;-1.932;2023-01-27T07:46:50;102506.50;;;3.17;100.00
49645;BME280;36494;50.730;-1.932;2023-01-27T07:49:15;102508.82;;;3.17;100.00
49645;BME280;36494;50.730;-1.932;2023-01-27T07:51:40;102512.93;;;3.19;100.00
49645;BME280;36494;50.730;-1.932;2023-01-27T07:54:06;102517.43;;;3.19;100.00
49645;BME280;36494;50.730;-1.932;2023-01-27T07:56:31;102524.28;;;3.19;100.00
49645;BME280;36494;50.730;-1.932;2023-01-27T07:58:57;102524.87;;;3.21;100.00
49645;BME280;36494;50.730;-1.932;2023-01-27T08:01:22;102532.76;;;3.21;100.00
49645;BME280;36494;50.730;-1.932;2023-01-27T08:03:48;102532.31;;;3.21;100.00
49645;BME280;36494;50.730;-1.932;2023-01-27T08:06:13;102535.70;;;3.22;100.00
49645;BME280;36494;50.730;-1.932;2023-01-27T08:08:39;102533.48;;;3.24;100.00
49645;BME280;36494;50.730;-1.932;2023-01-27T08:11:06;102538.07;;;3.25;100.00
49645;BME280;36494;50.730;-1.932;2023-01-27T08:13:30;102543.31;;;3.27;100.00
49645;BME280;36494;50.730;-1.932;2023-01-27T08:15:55;102543.89;;;3.27;100.00
49645;BME280;36494;50.730;-1.932;2023-01-27T08:18:20;102553.57;;;3.29;100.00
49645;BME280;36494;50.730;-1.932;2023-01-27T08:20:45;102555.47;;;3.28;100.00
49645;BME280;36494;50.730;-1.932;2023-01-27T08:23:11;102552.91;;;3.27;100.00
49645;BME280;36494;50.730;-1.932;2023-01-27T08:25:36;102552.38;;;3.31;100.00
49645;BME280;36494;50.730;-1.932;2023-01-27T08:28:02;102550.43;;;3.31;100.00
49645;BME280;36494;50.730;-1.932;2023-01-27T08:30:27;102556.04;;;3.33;100.00
49645;BME280;36494;50.730;-1.932;2023-01-27T08:32:54;102557.86;;;3.34;100.00
49645;BME280;36494;50.730;-1.932;2023-01-27T08:35:18;102555.51;;;3.38;100.00
49645;BME280;36494;50.730;-1.932;2023-01-27T08:37:45;102560.61;;;3.39;100.00
49645;BME280;36494;50.730;-1.932;2023-01-27T08:40:11;102560.99;;;3.40;100.00
49645;BME280;36494;50.730;-1.932;2023-01-27T08:42:35;102567.44;;;3.40;100.00
49645;BME280;36494;50.730;-1.932;2023-01-27T08:45:00;102564.81;;;3.40;100.00
49645;BME280;36494;50.730;-1.932;2023-01-27T08:47:26;102561.71;;;3.44;100.00
49645;BME280;36494;50.730;-1.932;2023-01-27T08:49:51;102561.45;;;3.46;100.00
49645;BME280;36494;50.730;-1.932;2023-01-27T08:52:16;102561.69;;;3.49;100.00
49645;BME280;36494;50.730;-1.932;2023-01-27T08:54:42;102564.50;;;3.51;100.00
49645;BME280;36494;50.730;-1.932;2023-01-27T08:57:07;102564.93;;;3.53;100.00
49645;BME280;36494;50.730;-1.932;2023-01-27T08:59:33;102572.03;;;3.53;100.00
49645;BME280;36494;50.730;-1.932;2023-01-27T09:01:58;102576.83;;;3.56;100.00
49645;BME280;36494;50.730;-1.932;2023-01-27T09:04:23;102580.62;;;3.58;100.00
49645;BME280;36494;50.730;-1.932;2023-01-27T09:06:49;102583.85;;;3.61;100.00
49645;BME280;36494;50.730;-1.932;2023-01-27T09:09:15;102589.45;;;3.62;100.00
49645;BME280;36494;50.730;-1.932;2023-01-27T09:11:42;102591.25;;;3.62;100.00
49645;BME280;36494;50.730;-1.932;2023-01-27T09:14:06;102594.24;;;3.64;100.00
49645;BME280;36494;50.730;-1.932;2023-01-27T09:16:31;102597.15;;;3.65;100.00
49645;BME280;36494;50.730;-1.932;2023-01-27T09:18:56;102593.08;;;3.68;100.00
49645;BME280;36494;50.730;-1.932;2023-01-27T09:21:22;102598.89;;;3.68;100.00
49645;BME280;36494;50.730;-1.932;2023-01-27T09:23:47;102595.33;;;3.69;100.00
49645;BME280;36494;50.730;-1.932;2023-01-27T09:26:12;102595.41;;;3.70;100.00
49645;BME280;36494;50.730;-1.932;2023-01-27T09:28:38;102595.98;;;3.73;100.00
49645;BME280;36494;50.730;-1.932;2023-01-27T09:31:04;102598.98;;;3.75;100.00
49645;BME280;36494;50.730;-1.932;2023-01-27T09:33:29;102594.34;;;3.76;100.00
49645;BME280;36494;50.730;-1.932;2023-01-27T09:35:58;102596.68;;;3.77;100.00
49645;BME280;36494;50.730;-1.932;2023-01-27T09:38:20;102595.50;;;3.79;100.00
49645;BME280;36494;50.730;-1.932;2023-01-27T09:40:57;102598.01;;;3.80;100.00
49645;BME280;36494;50.730;-1.932;2023-01-27T09:43:29;102595.18;;;3.81;100.00
49645;BME280;36494;50.730;-1.932;2023-01-27T09:45:47;102591.15;;;3.83;100.00
49645;BME280;36494;50.730;-1.932;2023-01-27T09:48:13;102588.91;;;3.84;100.00
49645;BME280;36494;50.730;-1.932;2023-01-27T09:50:37;102585.98;;;3.89;100.00
49645;BME280;36494;50.730;-1.932;2023-01-27T09:55:23;102581.44;;;3.95;100.00
49645;BME280;36494;50.730;-1.932;2023-01-27T09:57:50;102581.78;;;3.96;100.00
49645;BME280;36494;50.730;-1.932;2023-01-27T10:00:20;102575.32;;;3.99;100.00
49645;BME280;36494;50.730;-1.932;2023-01-27T10:02:52;102577.00;;;4.02;100.00
49645;BME280;36494;50.730;-1.932;2023-01-27T10:05:12;102580.11;;;4.08;100.00
49645;BME280;36494;50.730;-1.932;2023-01-27T10:07:42;102578.84;;;4.11;100.00
49645;BME280;36494;50.730;-1.932;2023-01-27T10:10:02;102577.93;;;4.12;100.00
49645;BME280;36494;50.730;-1.932;2023-01-27T10:12:27;102579.08;;;4.20;100.00
49645;BME280;36494;50.730;-1.932;2023-01-27T10:14:49;102582.04;;;4.26;100.00
49645;BME280;36494;50.730;-1.932;2023-01-27T10:17:19;102586.71;;;4.28;100.00
49645;BME280;36494;50.730;-1.932;2023-01-27T10:19:45;102584.19;;;4.35;100.00
49645;BME280;36494;50.730;-1.932;2023-01-27T10:22:08;102585.02;;;4.38;100.00
49645;BME280;36494;50.730;-1.932;2023-01-27T10:24:35;102586.45;;;4.41;100.00
49645;BME280;36494;50.730;-1.932;2023-01-27T10:26:51;102587.76;;;4.48;100.00
49645;BME280;36494;50.730;-1.932;2023-01-27T10:29:20;102587.55;;;4.52;100.00
49645;BME280;36494;50.730;-1.932;2023-01-27T10:31:46;102585.58;;;4.59;100.00
49645;BME280;36494;50.730;-1.932;2023-01-27T10:34:13;102584.65;;;4.60;100.00
49645;BME280;36494;50.730;-1.932;2023-01-27T10:36:36;102588.39;;;4.66;100.00
49645;BME280;36494;50.730;-1.932;2023-01-27T10:39:05;102586.16;;;4.73;100.00
49645;BME280;36494;50.730;-1.932;2023-01-27T10:41:29;102584.14;;;4.78;100.00
49645;BME280;36494;50.730;-1.932;2023-01-27T10:43:58;102579.46;;;4.77;100.00
49645;BME280;36494;50.730;-1.932;2023-01-27T10:46:18;102582.33;;;4.85;100.00
49645;BME280;36494;50.730;-1.932;2023-01-27T10:48:40;102581.91;;;4.89;100.00
49645;BME280;36494;50.730;-1.932;2023-01-27T10:51:07;102582.07;;;4.97;100.00
49645;BME280;36494;50.730;-1.932;2023-01-27T10:53:33;102580.76;;;5.05;100.00
49645;BME280;36494;50.730;-1.932;2023-01-27T10:55:59;102582.50;;;5.10;100.00
49645;BME280;36494;50.730;-1.932;2023-01-27T10:58:28;102574.33;;;5.18;100.00
49645;BME280;36494;50.730;-1.932;2023-01-27T11:00:48;102568.29;;;5.25;100.00
49645;BME280;36494;50.730;-1.932;2023-01-27T11:03:13;102564.82;;;5.29;100.00
49645;BME280;36494;50.730;-1.932;2023-01-27T11:05:38;102565.79;;;5.38;100.00
49645;BME280;36494;50.730;-1.932;2023-01-27T11:08:04;102568.47;;;5.40;100.00
49645;BME280;36494;50.730;-1.932;2023-01-27T11:10:32;102565.32;;;5.42;100.00
49645;BME280;36494;50.730;-1.932;2023-01-27T11:12:53;102565.65;;;5.44;100.00
49645;BME280;36494;50.730;-1.932;2023-01-27T11:15:22;102564.14;;;5.47;100.00
49645;BME280;36494;50.730;-1.932;2023-01-27T11:17:46;102565.23;;;5.56;100.00
49645;BME280;36494;50.730;-1.932;2023-01-27T11:20:15;102564.68;;;5.57;100.00
49645;BME280;36494;50.730;-1.932;2023-01-27T11:22:36;102556.15;;;5.65;100.00
49645;BME280;36494;50.730;-1.932;2023-01-27T11:25:03;102555.79;;;5.66;100.00
49645;BME280;36494;50.730;-1.932;2023-01-27T11:27:33;102559.28;;;5.65;100.00
49645;BME280;36494;50.730;-1.932;2023-01-27T11:29:54;102554.62;;;5.69;100.00
49645;BME280;36494;50.730;-1.932;2023-01-27T11:32:24;102545.64;;;5.71;100.00
49645;BME280;36494;50.730;-1.932;2023-01-27T11:34:43;102543.35;;;5.81;100.00
49645;BME280;36494;50.730;-1.932;2023-01-27T11:37:15;102544.85;;;5.85;100.00
49645;BME280;36494;50.730;-1.932;2023-01-27T11:39:32;102536.48;;;5.88;100.00
49645;BME280;36494;50.730;-1.932;2023-01-27T11:41:57;102539.12;;;5.92;100.00
49645;BME280;36494;50.730;-1.932;2023-01-27T11:44:25;102537.93;;;5.98;100.00
49645;BME280;36494;50.730;-1.932;2023-01-27T11:46:48;102533.65;;;5.99;100.00
49645;BME280;36494;50.730;-1.932;2023-01-27T11:49:18;102535.21;;;6.02;100.00
49645;BME280;36494;50.730;-1.932;2023-01-27T11:51:39;102532.98;;;6.08;100.00
49645;BME280;36494;50.730;-1.932;2023-01-27T11:54:10;102535.53;;;6.15;100.00
49645;BME280;36494;50.730;-1.932;2023-01-27T11:56:31;102532.07;;;6.19;100.00
49645;BME280;36494;50.730;-1.932;2023-01-27T11:59:00;102527.76;;;6.23;100.00
49645;BME280;36494;50.730;-1.932;2023-01-27T12:01:24;102520.75;;;6.24;100.00
49645;BME280;36494;50.730;-1.932;2023-01-27T12:03:53;102511.36;;;6.23;100.00
49645;BME280;36494;50.730;-1.932;2023-01-27T12:06:15;102509.12;;;6.25;100.00
49645;BME280;36494;50.730;-1.932;2023-01-27T12:08:39;102506.85;;;6.23;100.00
49645;BME280;36494;50.730;-1.932;2023-01-27T12:11:17;102510.41;;;6.23;100.00
49645;BME280;36494;50.730;-1.932;2023-01-27T12:13:28;102507.76;;;6.23;100.00
49645;BME280;36494;50.730;-1.932;2023-01-27T12:15:59;102501.89;;;6.26;100.00
49645;BME280;36494;50.730;-1.932;2023-01-27T12:18:19;102500.99;;;6.23;100.00
49645;BME280;36494;50.730;-1.932;2023-01-27T12:20:45;102498.80;;;6.23;100.00
49645;BME280;36494;50.730;-1.932;2023-01-27T12:23:18;102498.10;;;6.25;100.00
49645;BME280;36494;50.730;-1.932;2023-01-27T12:25:42;102499.24;;;6.34;100.00
49645;BME280;36494;50.730;-1.932;2023-01-27T12:28:02;102502.33;;;6.38;100.00
49645;BME280;36494;50.730;-1.932;2023-01-27T12:30:29;102499.62;;;6.41;100.00
49645;BME280;36494;50.730;-1.932;2023-01-27T12:32:52;102495.12;;;6.48;100.00